createdAt,value
2022-09-09T00:02:21.813Z,52.13
2022-09-09T00:07:49.667Z,44.30
2022-09-09T00:10:32.565Z,40.93
2022-09-09T00:13:07.340Z,48.20
2022-09-09T00:15:41.799Z,27.57
2022-09-09T00:18:29.177Z,33.50
2022-09-09T00:21:16.609Z,34.43
2022-09-09T00:23:55.911Z,29.77
2022-09-09T00:26:33.045Z,32.93
2022-09-09T00:29:13.126Z,27.13
2022-09-09T00:31:44.551Z,33.10
2022-09-09T00:34:20.785Z,27.63
2022-09-09T00:36:54.044Z,28.87
2022-09-09T00:39:34.156Z,29.43
2022-09-09T00:42:34.214Z,36.03
2022-09-09T00:45:35.828Z,31.53
2022-09-09T00:48:14.374Z,32.43
2022-09-09T00:50:56.710Z,30.63
2022-09-09T00:53:59.075Z,25.40
2022-09-09T00:57:03.965Z,35.70
2022-09-09T00:59:51.900Z,28.33
2022-09-09T01:02:47.190Z,40.23
2022-09-09T01:05:31.224Z,31.43
2022-09-09T01:08:06.722Z,35.77
2022-09-09T01:10:55.286Z,35.78
2022-09-09T01:13:34.671Z,33.77
2022-09-09T01:16:12.484Z,32.07
2022-09-09T01:18:50.616Z,38.43
2022-09-09T01:21:31.204Z,32.67
2022-09-09T01:24:09.349Z,30.83
2022-09-09T01:26:43.649Z,39.87
2022-09-09T01:29:18.239Z,32.57
2022-09-09T01:31:54.067Z,32.53
2022-09-09T01:34:32.805Z,30.55
2022-09-09T01:37:08.211Z,44.30
2022-09-09T01:39:43.869Z,37.45
2022-09-09T01:42:17.123Z,35.28
2022-09-09T01:44:48.495Z,35.93
2022-09-09T01:47:19.925Z,39.27
2022-09-09T01:49:51.403Z,33.17
2022-09-09T01:52:23.137Z,47.33
2022-09-09T01:54:54.707Z,38.13
2022-09-09T01:57:31.232Z,38.80
2022-09-09T02:00:12.796Z,32.43
2022-09-09T02:02:57.025Z,40.83
2022-09-09T02:05:45.413Z,39.07
2022-09-09T02:08:31.248Z,42.33
2022-09-09T02:11:09.311Z,41.70
2022-09-09T02:13:42.173Z,40.73
2022-09-09T02:16:40.136Z,33.90
2022-09-09T02:19:26.338Z,43.07
2022-09-09T02:22:00.777Z,34.75
2022-09-09T02:24:35.956Z,39.17
2022-09-09T02:27:09.832Z,37.58
2022-09-09T02:29:43.958Z,34.93
2022-09-09T02:32:18.811Z,36.70
2022-09-09T02:34:57.012Z,33.27
2022-09-09T02:37:36.262Z,30.47
2022-09-09T02:40:11.347Z,27.77
2022-09-09T02:42:46.267Z,24.27
2022-09-09T02:45:20.336Z,34.40
2022-09-09T02:48:07.135Z,26.97
2022-09-09T02:50:51.046Z,35.53
2022-09-09T02:53:31.804Z,37.63
2022-09-09T02:56:14.896Z,27.70
2022-09-09T02:58:47.150Z,32.57
2022-09-09T03:01:18.793Z,45.37
2022-09-09T03:03:50.292Z,35.97
2022-09-09T03:06:22.717Z,35.43
2022-09-09T03:08:55.285Z,30.77
2022-09-09T03:11:28.777Z,34.43
2022-09-09T03:14:00.200Z,37.80
2022-09-09T03:16:31.591Z,29.07
2022-09-09T03:19:03.044Z,31.00
2022-09-09T03:21:34.527Z,24.47
2022-09-09T03:24:07.521Z,29.10
2022-09-09T03:26:39.189Z,26.97
2022-09-09T03:29:10.670Z,29.80
2022-09-09T03:31:42.107Z,26.17
2022-09-09T03:34:14.622Z,28.53
2022-09-09T03:36:59.422Z,27.43
2022-09-09T03:39:31.081Z,19.70
2022-09-09T03:42:05.100Z,25.30
2022-09-09T03:44:36.523Z,21.97
2022-09-09T03:47:08.000Z,19.73
2022-09-09T03:49:39.308Z,19.07
2022-09-09T03:52:11.198Z,24.33
2022-09-09T03:54:43.373Z,20.17
2022-09-09T03:57:17.655Z,24.83
2022-09-09T03:59:49.025Z,27.63
2022-09-09T04:02:20.411Z,21.17
2022-09-09T04:04:51.847Z,18.63
2022-09-09T04:07:23.248Z,22.27
2022-09-09T04:09:55.580Z,16.47
2022-09-09T04:12:26.974Z,15.83
2022-09-09T04:14:58.409Z,21.00
2022-09-09T04:17:29.946Z,19.63
2022-09-09T04:20:02.400Z,12.40
2022-09-09T04:22:34.067Z,15.00
2022-09-09T04:25:06.972Z,17.93
2022-09-09T04:27:38.341Z,17.73
2022-09-09T04:30:11.117Z,15.83
2022-09-09T04:32:42.600Z,18.33
2022-09-09T04:35:14.303Z,20.87
2022-09-09T04:37:45.899Z,16.90
2022-09-09T04:40:17.456Z,18.33
2022-09-09T04:42:49.388Z,14.93
2022-09-09T04:45:20.877Z,14.63
2022-09-09T04:47:52.334Z,16.20
2022-09-09T04:50:23.847Z,13.63
2022-09-09T04:52:55.387Z,16.97
2022-09-09T04:55:26.710Z,13.93
2022-09-09T04:57:58.625Z,12.63
2022-09-09T05:00:30.003Z,16.27
2022-09-09T05:03:05.099Z,14.90
2022-09-09T05:05:36.819Z,12.97
2022-09-09T05:08:09.941Z,15.53
2022-09-09T05:10:42.801Z,13.03
2022-09-09T05:13:14.202Z,15.77
2022-09-09T05:15:53.920Z,11.07
2022-09-09T05:18:25.494Z,11.63
2022-09-09T05:21:01.262Z,14.10
2022-09-09T05:23:34.771Z,15.48
2022-09-09T05:26:07.217Z,15.13
2022-09-09T05:28:38.665Z,11.83
2022-09-09T05:31:13.762Z,14.27
2022-09-09T05:33:47.367Z,14.18
2022-09-09T05:36:21.359Z,13.90
2022-09-09T05:38:54.704Z,14.13
2022-09-09T05:41:26.501Z,10.53
2022-09-09T05:43:59.696Z,10.90
2022-09-09T05:46:31.349Z,13.70
2022-09-09T05:49:04.996Z,14.23
2022-09-09T05:51:36.426Z,8.90
2022-09-09T05:54:07.722Z,11.60
2022-09-09T05:56:39.072Z,9.63
2022-09-09T05:59:10.570Z,11.50
2022-09-09T06:01:42.057Z,13.43
2022-09-09T06:04:13.642Z,12.43
2022-09-09T06:06:45.082Z,8.20
2022-09-09T06:09:16.356Z,9.13
2022-09-09T06:11:47.682Z,10.70
2022-09-09T06:14:19.063Z,9.53
2022-09-09T06:16:50.493Z,9.07
2022-09-09T06:19:21.824Z,8.93
2022-09-09T06:21:53.251Z,16.70
2022-09-09T06:24:24.679Z,7.90
2022-09-09T06:26:56.826Z,10.40
2022-09-09T06:29:28.206Z,6.80
2022-09-09T06:31:59.929Z,8.37
2022-09-09T06:34:31.490Z,9.03
2022-09-09T06:37:02.982Z,8.80
2022-09-09T06:39:34.377Z,8.67
2022-09-09T06:42:05.948Z,11.20
2022-09-09T06:44:37.446Z,12.10
2022-09-09T06:47:08.932Z,11.80
2022-09-09T06:49:40.270Z,10.03
2022-09-09T06:52:11.668Z,7.07
2022-09-09T06:54:42.945Z,7.27
2022-09-09T06:57:36.361Z,10.27
2022-09-09T07:00:06.289Z,10.37
2022-09-09T07:02:40.089Z,6.50
2022-09-09T07:05:11.640Z,6.10
2022-09-09T07:07:44.112Z,5.83
2022-09-09T07:10:15.569Z,5.53
2022-09-09T07:12:52.662Z,9.47
2022-09-09T07:15:24.207Z,8.07
2022-09-09T07:17:55.605Z,6.80
2022-09-09T07:20:26.959Z,4.33
2022-09-09T07:22:59.408Z,8.90
2022-09-09T07:25:31.315Z,6.03
2022-09-09T07:28:02.930Z,7.23
2022-09-09T07:30:34.297Z,8.52
2022-09-09T07:33:05.850Z,6.63
2022-09-09T07:35:37.940Z,9.82
2022-09-09T07:38:10.420Z,5.38
2022-09-09T07:40:42.070Z,7.35
2022-09-09T07:43:17.250Z,4.85
2022-09-09T07:45:50.903Z,6.82
2022-09-09T07:48:22.330Z,5.40
2022-09-09T07:50:53.619Z,6.85
2022-09-09T07:53:24.991Z,4.95
2022-09-09T07:55:56.610Z,6.35
2022-09-09T07:58:27.952Z,6.32
2022-09-09T08:00:59.509Z,5.70
2022-09-09T08:03:30.807Z,6.32
2022-09-09T08:06:08.587Z,5.43
2022-09-09T08:08:42.084Z,3.83
2022-09-09T08:11:18.381Z,3.78
2022-09-09T08:13:54.332Z,4.05
2022-09-09T08:16:29.429Z,3.78
2022-09-09T08:19:00.879Z,5.70
2022-09-09T08:21:34.082Z,3.00
2022-09-09T08:24:08.882Z,4.97
2022-09-09T08:26:42.599Z,3.97
2022-09-09T08:29:14.753Z,4.65
2022-09-09T08:31:48.721Z,5.22
2022-09-09T08:34:20.917Z,4.80
2022-09-09T08:36:52.793Z,4.30
2022-09-09T08:39:24.293Z,6.03
2022-09-09T08:42:22.682Z,3.92
2022-09-09T08:44:59.691Z,5.20
2022-09-09T08:47:56.005Z,2.72
2022-09-09T08:50:30.829Z,8.02
2022-09-09T08:53:15.569Z,5.00
2022-09-09T08:55:50.698Z,5.47
2022-09-09T08:58:30.356Z,4.10
2022-09-09T09:01:09.687Z,4.68
2022-09-09T09:03:58.126Z,3.10
2022-09-09T09:06:34.420Z,6.95
2022-09-09T09:09:31.332Z,3.53
2022-09-09T09:12:10.478Z,3.90
2022-09-09T09:14:45.098Z,3.17
2022-09-09T09:17:23.000Z,2.93
2022-09-09T09:19:55.209Z,5.00
2022-09-09T09:22:52.081Z,6.78
2022-09-09T09:25:32.511Z,4.65
2022-09-09T09:28:20.179Z,3.40
2022-09-09T09:31:06.731Z,2.67
2022-09-09T09:33:50.615Z,4.65
2022-09-09T09:36:33.830Z,2.38
2022-09-09T09:42:05.132Z,3.45
2022-09-09T09:44:38.261Z,2.47
2022-09-09T09:47:14.313Z,4.97
2022-09-09T09:50:00.267Z,5.30
2022-09-09T09:52:33.191Z,5.45
2022-09-09T09:55:08.416Z,3.28
2022-09-09T09:57:40.094Z,2.60
2022-09-09T10:00:21.413Z,3.03
2022-09-09T10:02:53.652Z,5.88
2022-09-09T10:05:30.589Z,2.70
2022-09-09T10:08:13.120Z,3.58
2022-09-09T10:11:17.944Z,1.77
2022-09-09T10:13:59.309Z,2.17
2022-09-09T10:17:07.141Z,2.40
2022-09-09T10:19:41.927Z,2.63
2022-09-09T10:22:28.449Z,2.15
2022-09-09T10:25:17.616Z,6.43
2022-09-09T10:28:09.966Z,4.15
2022-09-09T10:31:17.321Z,4.00
2022-09-09T10:33:54.806Z,1.98
2022-09-09T10:36:30.658Z,4.40
2022-09-09T10:39:15.925Z,7.60
2022-09-09T10:42:06.734Z,6.00
2022-09-09T10:45:00.657Z,2.15
2022-09-09T10:47:40.753Z,5.40
2022-09-09T10:51:11.453Z,3.10
2022-09-09T10:54:05.958Z,3.42
2022-09-09T10:56:39.660Z,2.40
2022-09-09T10:59:18.380Z,3.20
2022-09-09T11:02:03.385Z,2.97
2022-09-09T11:04:43.930Z,3.25
2022-09-09T11:07:29.487Z,2.03
2022-09-09T11:10:07.310Z,2.85
2022-09-09T11:12:41.910Z,5.13
2022-09-09T11:15:23.804Z,5.60
2022-09-09T11:17:59.613Z,3.00
2022-09-09T11:20:33.062Z,3.70
2022-09-09T11:23:13.400Z,5.03
2022-09-09T11:26:01.059Z,2.75
2022-09-09T11:28:45.540Z,1.05
2022-09-09T11:31:46.224Z,1.92
2022-09-09T11:34:32.356Z,3.85
2022-09-09T11:37:18.253Z,4.38
2022-09-09T11:40:09.428Z,2.38
2022-09-09T11:42:41.044Z,3.20
2022-09-09T11:45:26.737Z,5.32
2022-09-09T11:48:00.509Z,4.75
2022-09-09T11:50:38.560Z,4.60
2022-09-09T11:53:23.446Z,3.80
2022-09-09T11:56:05.969Z,3.70
2022-09-09T11:58:57.649Z,4.35
2022-09-09T12:01:34.939Z,4.80
2022-09-09T12:04:12.173Z,3.72
2022-09-09T12:06:47.129Z,2.35
2022-09-09T12:09:43.442Z,3.38
2022-09-09T12:12:14.821Z,2.05
2022-09-09T12:15:20.856Z,1.92
2022-09-09T12:17:55.905Z,2.92
2022-09-09T12:20:32.389Z,3.58
2022-09-09T12:23:22.179Z,5.28
2022-09-09T12:26:09.827Z,4.60
2022-09-09T12:28:51.741Z,3.38
2022-09-09T12:31:47.549Z,4.70
2022-09-09T12:34:46.476Z,3.13
2022-09-09T12:37:28.226Z,4.53
2022-09-09T12:40:03.107Z,4.38
2022-09-09T12:42:41.499Z,10.90
2022-09-09T12:45:33.795Z,5.25
2022-09-09T12:48:09.405Z,7.10
2022-09-09T12:53:27.215Z,2.90
2022-09-09T12:56:11.013Z,2.58
2022-09-09T12:58:47.850Z,3.88
2022-09-09T13:01:25.322Z,4.60
2022-09-09T13:03:57.718Z,5.93
2022-09-09T13:06:31.602Z,2.65
2022-09-09T13:09:03.876Z,2.90
2022-09-09T13:11:40.918Z,3.85
2022-09-09T13:14:35.638Z,4.22
2022-09-09T13:17:18.108Z,3.88
2022-09-09T13:19:53.464Z,3.08
2022-09-09T13:22:38.839Z,3.35
2022-09-09T13:25:10.958Z,7.63
2022-09-09T13:27:56.911Z,4.00
2022-09-09T13:30:30.424Z,2.25
2022-09-09T13:33:13.937Z,4.50
2022-09-09T13:36:04.347Z,3.00
2022-09-09T13:38:55.811Z,2.90
2022-09-09T13:41:33.533Z,6.78
2022-09-09T13:44:07.515Z,3.67
2022-09-09T13:46:41.429Z,3.10
2022-09-09T13:49:12.717Z,4.97
2022-09-09T13:51:47.852Z,3.78
2022-09-09T13:54:21.122Z,3.58
2022-09-09T13:56:52.478Z,3.63
2022-09-09T13:59:30.713Z,2.47
2022-09-09T14:02:14.942Z,2.67
2022-09-09T14:04:46.378Z,2.55
2022-09-09T14:07:19.728Z,3.20
2022-09-09T14:09:52.691Z,2.75
2022-09-09T14:12:24.120Z,2.67
2022-09-09T14:14:55.391Z,4.05
2022-09-09T14:17:32.071Z,6.43
2022-09-09T14:20:08.860Z,2.50
2022-09-09T14:22:40.263Z,4.00
2022-09-09T14:25:14.315Z,1.98
2022-09-09T14:27:46.843Z,3.25
2022-09-09T14:30:18.265Z,3.08
2022-09-09T14:32:49.678Z,2.95
2022-09-09T14:35:21.021Z,3.40
2022-09-09T14:37:52.712Z,3.28
2022-09-09T14:40:24.035Z,3.73
2022-09-09T14:42:56.662Z,2.15
2022-09-09T14:45:28.048Z,2.15
2022-09-09T14:48:00.412Z,2.72
2022-09-09T14:50:31.898Z,2.88
2022-09-09T14:53:03.344Z,2.58
2022-09-09T14:55:34.806Z,2.55
2022-09-09T14:58:07.148Z,2.55
2022-09-09T15:00:38.417Z,3.05
2022-09-09T15:03:11.737Z,2.85
2022-09-09T15:05:43.016Z,3.42
2022-09-09T15:08:16.975Z,1.52
2022-09-09T15:10:48.334Z,4.03
2022-09-09T15:13:19.613Z,2.40
2022-09-09T15:15:51.160Z,2.08
2022-09-09T15:18:22.689Z,3.45
2022-09-09T15:20:54.194Z,1.20
2022-09-09T15:23:25.536Z,1.00
2022-09-09T15:25:57.444Z,1.10
2022-09-09T15:28:29.170Z,3.80
2022-09-09T15:31:07.779Z,1.80
2022-09-09T15:33:39.397Z,2.33
2022-09-09T15:36:19.622Z,1.30
2022-09-09T15:38:52.421Z,2.38
2022-09-09T15:41:24.547Z,2.03
2022-09-09T15:44:00.758Z,2.33
2022-09-09T15:46:38.162Z,4.65
2022-09-09T15:49:12.663Z,1.00
2022-09-09T15:51:52.388Z,2.40
2022-09-09T15:54:25.161Z,1.02
2022-09-09T15:56:59.868Z,1.75
2022-09-09T15:59:32.389Z,1.42
2022-09-09T16:02:04.055Z,1.83
2022-09-09T16:04:35.487Z,2.00
2022-09-09T16:07:07.226Z,2.13
2022-09-09T16:09:40.178Z,1.55
2022-09-09T16:12:13.082Z,1.13
2022-09-09T16:14:46.272Z,3.88
2022-09-09T16:17:17.629Z,2.83
2022-09-09T16:19:48.964Z,1.85
2022-09-09T16:22:20.551Z,2.50
2022-09-09T16:24:52.106Z,1.00
2022-09-09T16:27:24.171Z,4.47
2022-09-09T16:29:55.506Z,1.92
2022-09-09T16:32:27.074Z,2.05
2022-09-09T16:34:58.511Z,2.88
2022-09-09T16:37:30.435Z,2.05
2022-09-09T16:40:04.277Z,3.78
2022-09-09T16:42:39.418Z,1.90
2022-09-09T16:45:14.330Z,1.92
2022-09-09T16:47:45.655Z,1.70
2022-09-09T16:50:17.283Z,4.00
2022-09-09T16:52:48.729Z,2.05
2022-09-09T16:55:23.278Z,1.50
2022-09-09T16:57:54.916Z,1.85
2022-09-09T17:00:27.986Z,14.43
2022-09-09T17:02:59.849Z,2.35
2022-09-09T17:05:31.226Z,1.95
2022-09-09T17:08:02.570Z,2.53
2022-09-09T17:10:34.290Z,5.72
2022-09-09T17:13:05.670Z,2.40
2022-09-09T17:15:43.557Z,2.55
2022-09-09T17:18:14.933Z,3.42
2022-09-09T17:20:47.457Z,2.20
2022-09-09T17:23:18.886Z,3.33
2022-09-09T17:25:59.566Z,3.38
2022-09-09T17:28:32.149Z,4.55
2022-09-09T17:31:05.654Z,4.07
2022-09-09T17:33:42.593Z,4.10
2022-09-09T17:36:27.035Z,6.70
2022-09-09T17:39:00.639Z,8.43
2022-09-09T17:41:38.577Z,6.73
2022-09-09T17:44:10.692Z,6.60
2022-09-09T17:46:44.146Z,6.20
2022-09-09T17:49:18.343Z,10.70
2022-09-09T17:51:49.666Z,10.73
2022-09-09T17:54:21.416Z,8.40
2022-09-09T17:56:53.285Z,6.50
2022-09-09T17:59:26.011Z,5.57
2022-09-09T18:01:57.882Z,4.97
2022-09-09T18:04:29.476Z,4.23
2022-09-09T18:07:00.831Z,4.10
2022-09-09T18:09:32.528Z,6.43
2022-09-09T18:12:04.069Z,6.00
2022-09-09T18:14:35.462Z,5.57
2022-09-09T18:17:06.839Z,5.13
2022-09-09T18:19:38.180Z,5.03
2022-09-09T18:22:09.565Z,6.30
2022-09-09T18:24:41.410Z,4.23
2022-09-09T18:27:12.873Z,4.33
2022-09-09T18:29:44.534Z,4.97
2022-09-09T18:32:17.043Z,4.40
2022-09-09T18:34:51.571Z,7.57
2022-09-09T18:37:26.184Z,4.90
2022-09-09T18:39:57.572Z,3.47
2022-09-09T18:42:28.898Z,4.53
2022-09-09T18:45:00.636Z,4.97
2022-09-09T18:47:32.036Z,4.43
2022-09-09T18:50:04.493Z,4.20
2022-09-09T18:52:35.831Z,4.27
2022-09-09T18:55:09.010Z,5.13
2022-09-09T18:57:41.110Z,6.53
2022-09-09T19:00:12.820Z,5.97
2022-09-09T19:02:44.306Z,3.23
2022-09-09T19:05:15.679Z,3.17
2022-09-09T19:07:47.076Z,4.27
2022-09-09T19:10:19.334Z,8.87
2022-09-09T19:12:51.181Z,3.40
2022-09-09T19:15:23.011Z,5.00
2022-09-09T19:17:56.403Z,4.97
2022-09-09T19:20:27.854Z,4.27
2022-09-09T19:23:00.100Z,5.43
2022-09-09T19:25:37.387Z,3.40
2022-09-09T19:28:08.778Z,7.50
2022-09-09T19:30:40.258Z,4.83
2022-09-09T19:33:12.042Z,5.17
2022-09-09T19:35:43.418Z,4.17
2022-09-09T19:38:14.806Z,3.40
2022-09-09T19:40:46.145Z,6.13
2022-09-09T19:43:17.496Z,6.53
2022-09-09T19:46:06.565Z,5.30
2022-09-09T19:48:41.104Z,17.70
2022-09-09T19:51:17.701Z,10.87
2022-09-09T19:53:58.058Z,7.00
2022-09-09T19:56:31.076Z,9.07
2022-09-09T19:59:03.868Z,8.57
2022-09-09T20:01:41.566Z,4.23
2022-09-09T20:04:14.349Z,5.90
2022-09-09T20:06:46.421Z,5.30
2022-09-09T20:09:18.304Z,3.93
2022-09-09T20:11:50.310Z,7.07
2022-09-09T20:14:21.694Z,5.27
2022-09-09T20:16:53.102Z,4.20
2022-09-09T20:19:24.422Z,6.23
2022-09-09T20:21:56.014Z,4.53
2022-09-09T20:24:27.476Z,3.20
2022-09-09T20:26:58.883Z,5.37
2022-09-09T20:29:30.230Z,3.40
2022-09-09T20:32:01.753Z,4.67
2022-09-09T20:34:33.066Z,4.30
2022-09-09T20:37:05.810Z,5.20
2022-09-09T20:39:37.310Z,7.27
2022-09-09T20:42:08.683Z,14.70
2022-09-09T20:44:39.986Z,12.63
2022-09-09T20:47:11.419Z,5.83
2022-09-09T20:49:43.008Z,3.80
2022-09-09T20:52:15.161Z,5.67
2022-09-09T20:54:47.393Z,2.77
2022-09-09T20:57:21.994Z,5.63
2022-09-09T20:59:53.390Z,8.40
2022-09-09T21:02:24.860Z,3.83
2022-09-09T21:04:56.334Z,2.80
2022-09-09T21:07:29.137Z,2.87
2022-09-09T21:10:01.978Z,2.73
2022-09-09T21:12:33.313Z,3.27
2022-09-09T21:15:05.194Z,5.10
2022-09-09T21:17:36.674Z,3.13
2022-09-09T21:20:08.952Z,5.50
2022-09-09T21:22:40.621Z,3.80
2022-09-09T21:25:11.908Z,5.07
2022-09-09T21:27:43.180Z,3.87
2022-09-09T21:30:14.536Z,6.13
2022-09-09T21:32:45.906Z,3.97
2022-09-09T21:35:17.298Z,3.00
2022-09-09T21:37:49.719Z,4.43
2022-09-09T21:40:22.371Z,3.47
2022-09-09T21:42:53.633Z,3.03
2022-09-09T21:45:26.904Z,4.57
2022-09-09T21:47:58.247Z,5.80
2022-09-09T21:50:29.586Z,5.23
2022-09-09T21:53:00.896Z,3.67
2022-09-09T21:55:36.866Z,2.10
2022-09-09T21:58:11.982Z,5.22
2022-09-09T22:00:45.681Z,7.43
2022-09-09T22:03:17.483Z,2.20
2022-09-09T22:05:53.713Z,4.97
2022-09-09T22:08:25.339Z,4.53
2022-09-09T22:10:57.611Z,4.23
2022-09-09T22:13:29.942Z,2.97
2022-09-09T22:16:04.173Z,5.13
2022-09-09T22:18:35.966Z,6.00
2022-09-09T22:21:14.932Z,6.70
2022-09-09T22:23:52.415Z,2.70
2022-09-09T22:26:25.361Z,5.97
2022-09-09T22:28:57.301Z,4.40
2022-09-09T22:31:28.699Z,6.37
2022-09-09T22:34:00.198Z,7.87
2022-09-09T22:36:31.906Z,4.97
2022-09-09T22:39:03.830Z,3.77
2022-09-09T22:41:35.130Z,4.43
2022-09-09T22:44:09.150Z,4.40
2022-09-09T22:46:40.697Z,4.60
2022-09-09T22:49:12.466Z,3.83
2022-09-09T22:51:44.209Z,5.53
2022-09-09T22:54:21.440Z,3.53
2022-09-09T22:56:52.968Z,4.53
2022-09-09T22:59:24.335Z,2.90
2022-09-09T23:01:57.381Z,2.37
2022-09-09T23:04:29.023Z,4.47
2022-09-09T23:07:00.869Z,5.33
2022-09-09T23:09:32.305Z,4.13
2022-09-09T23:12:04.430Z,4.23
2022-09-09T23:14:35.800Z,5.23
2022-09-09T23:17:07.289Z,2.93
2022-09-09T23:19:39.978Z,3.00
2022-09-09T23:22:11.441Z,4.77
2022-09-09T23:24:42.974Z,2.37
2022-09-09T23:27:14.462Z,3.10
2022-09-09T23:29:48.244Z,4.10
2022-09-09T23:32:19.931Z,3.10
2022-09-09T23:34:51.658Z,2.43
2022-09-09T23:37:23.031Z,2.83
2022-09-09T23:39:54.376Z,2.17
2022-09-09T23:42:26.877Z,4.60
2022-09-09T23:44:58.249Z,2.07
2022-09-09T23:47:29.541Z,2.43
2022-09-09T23:50:01.561Z,4.30
2022-09-09T23:52:33.065Z,3.93
2022-09-09T23:55:05.566Z,6.17
2022-09-09T23:57:36.914Z,1.87
